KRMY

Brooks Field Airport

Marshall, Michigan, USA
METAR KRMY 242115Z AUTO 12007KT 10SM OVC007 19/18 A3003 RMK AO2 T01940179
Observed Flight Rules
Sep-24 @ 21:15 UTC (7 minutes ago) Instrument Flight Rules
Wind Visibility Clouds
120° at 7 knots 10 miles
  • Overcast at 700' AGL
Temperatures Readings
Current 19°C / 66°F
Dewpoint 18°C / 64°F
Humidity 94%
Altimeter 30.03" Hg
Pressure 1017 hPa
Elevation 287
METAR KRMY 242115Z AUTO 12007KT 10SM OVC007 19/18 A3003 RMK AO2 T01940179
Observed Flight Rules
Sep-24 @ 21:15 UTC
(7 minutes ago)
IFR
Wind Visibility
120° at 7 knots 10 miles
Clouds
  • Overcast at 700' AGL
Temperature Dewpoint
19°C / 66°F 18°C / 64°F
Humidity Altimeter Pressure
94% 30.03" Hg 1017 hPa